createdAt,value
2023-05-22T00:00:36.574Z,16.3
2023-05-22T00:01:37.498Z,16.2
2023-05-22T00:02:38.642Z,16.2
2023-05-22T00:03:39.517Z,16.2
2023-05-22T00:04:40.579Z,16.1
2023-05-22T00:05:41.585Z,16.1
2023-05-22T00:06:42.521Z,16.1
2023-05-22T00:07:43.691Z,16
2023-05-22T00:08:44.514Z,16
2023-05-22T00:09:45.577Z,15.9
2023-05-22T00:10:46.517Z,15.9
2023-05-22T00:11:47.519Z,16
2023-05-22T00:12:48.482Z,16
2023-05-22T00:13:49.484Z,16
2023-05-22T00:14:50.576Z,16
2023-05-22T00:15:51.480Z,15.9
2023-05-22T00:16:52.506Z,15.9
2023-05-22T00:17:53.492Z,16
2023-05-22T00:18:54.538Z,16
2023-05-22T00:19:55.559Z,16
2023-05-22T00:20:56.524Z,15.9
2023-05-22T00:21:57.504Z,16
2023-05-22T00:22:58.544Z,16
2023-05-22T00:23:59.497Z,15.9
2023-05-22T00:25:00.528Z,15.9
2023-05-22T00:26:01.523Z,15.8
2023-05-22T00:27:02.530Z,15.7
2023-05-22T00:28:03.527Z,15.7
2023-05-22T00:29:04.497Z,15.6
2023-05-22T00:30:05.596Z,15.6
2023-05-22T00:31:06.520Z,15.6
2023-05-22T00:32:07.544Z,15.6
2023-05-22T00:33:08.550Z,15.6
2023-05-22T00:34:09.515Z,15.6
2023-05-22T00:35:10.528Z,15.6
2023-05-22T00:36:11.613Z,15.6
2023-05-22T00:37:12.547Z,15.4
2023-05-22T00:38:13.654Z,15.5
2023-05-22T00:39:14.499Z,15.5
2023-05-22T00:40:15.510Z,15.4
2023-05-22T00:41:16.520Z,15.4
2023-05-22T00:42:17.539Z,15.3
2023-05-22T00:43:18.503Z,15.3
2023-05-22T00:44:20.227Z,15.2
2023-05-22T00:45:21.549Z,15.1
2023-05-22T00:46:22.585Z,15.1
2023-05-22T00:47:23.579Z,15.2
2023-05-22T00:48:24.584Z,15.1
2023-05-22T00:49:25.590Z,15
2023-05-22T00:50:26.549Z,15
2023-05-22T00:51:27.546Z,15.1
2023-05-22T00:52:28.542Z,15
2023-05-22T00:53:29.572Z,15.1
2023-05-22T00:54:30.599Z,15.1
2023-05-22T00:55:31.542Z,15.1
2023-05-22T00:56:32.518Z,15.1
2023-05-22T00:57:33.586Z,15.1
2023-05-22T00:58:34.565Z,15.2
2023-05-22T00:59:35.580Z,15.2
2023-05-22T01:00:36.705Z,15.2
2023-05-22T01:01:37.703Z,15.3
2023-05-22T01:02:38.556Z,15.3
2023-05-22T01:03:39.669Z,15.3
2023-05-22T01:04:40.539Z,15.4
2023-05-22T01:05:41.559Z,15.4
2023-05-22T01:06:42.581Z,15.4
2023-05-22T01:07:43.540Z,15.4
2023-05-22T01:08:44.607Z,15.5
2023-05-22T01:09:45.580Z,15.5
2023-05-22T01:10:46.550Z,15.5
2023-05-22T01:11:47.562Z,15.5
2023-05-22T01:12:48.584Z,15.5
2023-05-22T01:13:49.557Z,15.5
2023-05-22T01:14:50.609Z,15.5
2023-05-22T01:15:51.575Z,15.4
2023-05-22T01:16:52.586Z,15.4
2023-05-22T01:17:53.674Z,15.4
2023-05-22T01:18:54.574Z,15.5
2023-05-22T01:19:55.558Z,15.4
2023-05-22T01:20:56.583Z,15.4
2023-05-22T01:21:57.561Z,15.4
2023-05-22T01:22:58.752Z,15.4
2023-05-22T01:23:59.586Z,15.4
2023-05-22T01:25:00.550Z,15.4
2023-05-22T01:26:01.606Z,15.5
2023-05-22T01:27:02.586Z,15.4
2023-05-22T01:28:03.618Z,15.3
2023-05-22T01:29:04.567Z,15.2
2023-05-22T01:30:05.576Z,15.1
2023-05-22T01:31:06.581Z,15
2023-05-22T01:32:07.621Z,15.1
2023-05-22T01:33:08.660Z,15.2
2023-05-22T01:35:56.597Z,15.2
2023-05-22T01:36:57.567Z,15.2
2023-05-22T01:37:58.584Z,15.2
2023-05-22T01:38:59.550Z,15.2
2023-05-22T01:40:00.603Z,15.3
2023-05-22T01:41:01.563Z,15.3
2023-05-22T01:42:02.611Z,15.3
2023-05-22T01:43:03.621Z,15.4
2023-05-22T01:44:04.581Z,15.3
2023-05-22T01:45:05.590Z,15.4
2023-05-22T01:46:06.597Z,15.4
2023-05-22T01:47:07.607Z,15.3
2023-05-22T01:48:08.667Z,15.3
2023-05-22T01:49:09.586Z,15.3
2023-05-22T01:50:10.595Z,15.3
2023-05-22T01:51:11.582Z,15.3
2023-05-22T01:52:12.594Z,15.3
2023-05-22T01:53:13.599Z,15.2
2023-05-22T01:54:14.660Z,15.1
2023-05-22T01:55:15.627Z,15.1
2023-05-22T01:56:16.624Z,15.1
2023-05-22T01:57:17.612Z,15
2023-05-22T01:58:18.609Z,15
2023-05-22T01:59:19.648Z,15.1
2023-05-22T02:00:20.583Z,15.1
2023-05-22T02:01:24.629Z,15
2023-05-22T02:02:25.665Z,15
2023-05-22T02:03:26.809Z,15
2023-05-22T02:04:27.619Z,14.9
2023-05-22T02:05:28.581Z,14.9
2023-05-22T02:06:29.638Z,14.9
2023-05-22T02:07:30.581Z,14.9
2023-05-22T02:08:31.602Z,14.9
2023-05-22T02:09:32.603Z,14.9
2023-05-22T02:10:33.604Z,14.9
2023-05-22T02:11:34.647Z,14.8
2023-05-22T02:12:35.619Z,14.8
2023-05-22T02:13:36.585Z,14.8
2023-05-22T02:14:37.640Z,14.8
2023-05-22T02:15:38.609Z,14.8
2023-05-22T02:16:39.641Z,14.8
2023-05-22T02:17:40.729Z,14.7
2023-05-22T02:18:41.581Z,14.7
2023-05-22T02:19:42.601Z,14.7
2023-05-22T02:20:43.620Z,14.7
2023-05-22T02:21:44.591Z,14.7
2023-05-22T02:22:45.643Z,14.7
2023-05-22T02:23:46.621Z,14.6
2023-05-22T02:24:47.609Z,14.6
2023-05-22T02:25:48.674Z,14.6
2023-05-22T02:26:49.633Z,14.6
2023-05-22T02:27:50.609Z,14.6
2023-05-22T02:28:51.612Z,14.6
2023-05-22T02:29:52.616Z,14.6
2023-05-22T02:30:53.686Z,14.6
2023-05-22T02:31:54.674Z,14.6
2023-05-22T02:32:55.656Z,14.6
2023-05-22T02:33:56.585Z,14.6
2023-05-22T02:34:57.583Z,14.5
2023-05-22T02:35:58.608Z,14.6
2023-05-22T02:36:59.649Z,14.5
2023-05-22T02:38:00.600Z,14.6
2023-05-22T02:39:01.641Z,14.6
2023-05-22T02:40:02.639Z,14.6
2023-05-22T02:41:03.669Z,14.5
2023-05-22T02:42:04.625Z,14.6
2023-05-22T02:43:05.621Z,14.5
2023-05-22T02:44:06.660Z,14.4
2023-05-22T02:45:07.668Z,14.5
2023-05-22T02:46:08.721Z,14.5
2023-05-22T02:47:09.623Z,14.5
2023-05-22T02:48:10.638Z,14.4
2023-05-22T02:49:11.591Z,14.5
2023-05-22T02:50:12.638Z,14.4
2023-05-22T02:51:13.739Z,14.4
2023-05-22T02:52:14.641Z,14.4
2023-05-22T02:53:15.603Z,14.3
2023-05-22T02:54:16.696Z,14.3
2023-05-22T02:55:17.664Z,14.3
2023-05-22T02:56:18.686Z,14.3
2023-05-22T02:57:19.601Z,14.3
2023-05-22T02:58:20.590Z,14.3
2023-05-22T02:59:21.617Z,14.3
2023-05-22T03:00:22.667Z,14.2
2023-05-22T03:01:23.654Z,14.2
2023-05-22T03:02:24.704Z,14.1
2023-05-22T03:03:25.830Z,14.1
2023-05-22T03:04:26.659Z,14.1
2023-05-22T03:05:27.600Z,14
2023-05-22T03:06:28.663Z,14
2023-05-22T03:07:29.812Z,14
2023-05-22T03:08:30.596Z,14
2023-05-22T03:09:31.618Z,14.1
2023-05-22T03:10:32.636Z,14.1
2023-05-22T03:11:33.644Z,14.1
2023-05-22T03:12:34.669Z,14.1
2023-05-22T03:13:35.616Z,14.2
2023-05-22T03:14:36.658Z,14.1
2023-05-22T03:15:37.616Z,14.1
2023-05-22T03:16:38.626Z,14.1
2023-05-22T03:17:39.661Z,14.2
2023-05-22T03:18:40.648Z,14.1
2023-05-22T03:19:41.623Z,14.2
2023-05-22T03:20:42.621Z,14.2
2023-05-22T03:21:43.623Z,14.2
2023-05-22T03:22:44.680Z,14.2
2023-05-22T03:23:45.640Z,14.2
2023-05-22T03:24:46.619Z,14.2
2023-05-22T03:25:47.693Z,14.2
2023-05-22T03:26:48.682Z,14.3
2023-05-22T03:27:49.621Z,14.3
2023-05-22T03:28:50.658Z,14.3
2023-05-22T03:29:51.641Z,14.3
2023-05-22T03:30:52.718Z,14.3
2023-05-22T03:31:53.620Z,14.4
2023-05-22T03:32:54.695Z,14.3
2023-05-22T03:33:55.648Z,14.3
2023-05-22T03:34:56.620Z,14.3
2023-05-22T03:35:57.646Z,14.3
2023-05-22T03:36:58.640Z,14.3
2023-05-22T03:37:59.677Z,14.3
2023-05-22T03:39:00.648Z,14.3
2023-05-22T03:40:01.688Z,14.3
2023-05-22T03:41:02.641Z,14.3
2023-05-22T03:42:03.686Z,14.2
2023-05-22T03:43:04.728Z,14.2
2023-05-22T03:44:05.723Z,14.2
2023-05-22T03:45:06.723Z,14.2
2023-05-22T03:46:07.656Z,14.2
2023-05-22T03:47:08.721Z,14.2
2023-05-22T03:48:09.676Z,14.1
2023-05-22T03:49:10.706Z,14.2
2023-05-22T03:50:11.620Z,14.3
2023-05-22T03:51:12.648Z,14.3
2023-05-22T03:52:13.657Z,14.3
2023-05-22T03:53:14.640Z,14.3
2023-05-22T03:54:15.664Z,14.3
2023-05-22T03:55:16.684Z,14.3
2023-05-22T03:56:17.665Z,14.3
2023-05-22T03:57:18.640Z,14.3
2023-05-22T03:58:19.644Z,14.3
2023-05-22T03:59:20.606Z,14.3
2023-05-22T04:00:21.694Z,14.3
2023-05-22T04:01:22.644Z,14.3
2023-05-22T04:02:23.802Z,14.4
2023-05-22T04:03:24.719Z,14.4
2023-05-22T04:04:25.610Z,14.2
2023-05-22T04:05:26.771Z,14.1
2023-05-22T04:06:27.647Z,14.2
2023-05-22T04:07:28.641Z,14.2
2023-05-22T04:08:29.678Z,14.3
2023-05-22T04:09:30.639Z,14.3
2023-05-22T04:10:31.668Z,14.3
2023-05-22T04:11:32.662Z,14.3
2023-05-22T04:12:33.721Z,14.4
2023-05-22T04:13:34.714Z,14.4
2023-05-22T04:14:35.680Z,14.5
2023-05-22T04:15:36.792Z,14.5
2023-05-22T04:16:37.705Z,14.6
2023-05-22T04:17:38.685Z,14.6
2023-05-22T04:18:39.659Z,14.6
2023-05-22T04:19:40.616Z,14.7
2023-05-22T04:20:42.349Z,14.7
2023-05-22T04:21:43.679Z,14.8
2023-05-22T04:22:44.669Z,14.8
2023-05-22T04:23:45.644Z,14.9
2023-05-22T04:24:46.678Z,14.8
2023-05-22T04:25:47.721Z,14.8
2023-05-22T04:26:48.678Z,14.9
2023-05-22T04:27:49.718Z,14.9
2023-05-22T04:28:50.668Z,14.9
2023-05-22T04:29:51.642Z,14.9
2023-05-22T04:30:52.786Z,14.8
2023-05-22T04:31:53.667Z,14.7
2023-05-22T04:32:54.693Z,14.7
2023-05-22T04:33:55.698Z,14.8
2023-05-22T04:34:56.679Z,14.9
2023-05-22T04:35:57.736Z,14.8
2023-05-22T04:36:58.677Z,14.5
2023-05-22T04:37:59.659Z,14.4
2023-05-22T04:39:00.682Z,14.4
2023-05-22T04:40:01.759Z,14.4
2023-05-22T04:41:02.760Z,14.5
2023-05-22T04:42:03.646Z,14.5
2023-05-22T04:43:04.744Z,14.5
2023-05-22T04:44:05.648Z,14.6
2023-05-22T04:45:06.706Z,14.6
2023-05-22T04:46:07.774Z,14.5
2023-05-22T04:47:08.857Z,14.4
2023-05-22T04:48:09.665Z,14.3
2023-05-22T04:49:10.717Z,14.3
2023-05-22T04:50:11.675Z,14.4
2023-05-22T04:51:12.742Z,14.4
2023-05-22T04:52:13.885Z,14.5
2023-05-22T04:53:14.714Z,14.4
2023-05-22T04:54:15.676Z,14.4
2023-05-22T04:55:16.676Z,14.3
2023-05-22T04:56:28.101Z,14.4
2023-05-22T04:57:18.702Z,14.5
2023-05-22T04:58:19.713Z,14.5
2023-05-22T04:59:20.666Z,14.6
2023-05-22T05:00:21.680Z,14.7
2023-05-22T05:01:22.763Z,14.8
2023-05-22T05:02:23.676Z,14.9
2023-05-22T05:03:24.706Z,15
2023-05-22T05:04:25.683Z,15.1
2023-05-22T05:05:26.657Z,15.2
2023-05-22T05:06:27.687Z,15.1
2023-05-22T05:07:28.719Z,14.9
2023-05-22T05:08:29.779Z,14.9
2023-05-22T05:09:30.677Z,14.9
2023-05-22T05:10:31.702Z,15
2023-05-22T05:11:32.687Z,15
2023-05-22T05:12:34.164Z,14.9
2023-05-22T05:13:35.745Z,14.9
2023-05-22T05:14:36.696Z,14.8
2023-05-22T05:15:37.724Z,14.7
2023-05-22T05:16:38.695Z,14.8
2023-05-22T05:17:39.721Z,14.9
2023-05-22T05:18:40.739Z,15
2023-05-22T05:19:41.729Z,14.9
2023-05-22T05:20:42.676Z,15.1
2023-05-22T05:21:43.697Z,15.2
2023-05-22T05:22:44.710Z,15.4
2023-05-22T05:23:45.721Z,15.5
2023-05-22T05:24:46.733Z,15.5
2023-05-22T05:25:47.701Z,15.4
2023-05-22T05:26:48.697Z,15.4
2023-05-22T05:27:49.676Z,15.4
2023-05-22T05:28:50.722Z,15.5
2023-05-22T05:29:51.693Z,15.5
2023-05-22T05:30:52.696Z,15.6
2023-05-22T05:31:53.721Z,15.7
2023-05-22T05:32:54.742Z,15.8
2023-05-22T05:33:55.738Z,15.7
2023-05-22T05:34:56.697Z,15.8
2023-05-22T05:35:57.690Z,15.9
2023-05-22T05:36:58.659Z,15.8
2023-05-22T05:37:59.696Z,15.9
2023-05-22T05:39:00.719Z,16
2023-05-22T05:40:01.745Z,16
2023-05-22T05:41:02.717Z,16
2023-05-22T05:42:03.718Z,16.1
2023-05-22T05:43:05.569Z,16.1
2023-05-22T05:44:05.901Z,16
2023-05-22T05:45:06.752Z,16
2023-05-22T05:46:07.769Z,16.1
2023-05-22T05:47:08.947Z,16.2
2023-05-22T05:48:09.826Z,16.3
2023-05-22T05:49:10.756Z,16.4
2023-05-22T05:50:11.731Z,16.4
2023-05-22T05:51:12.750Z,16.5
2023-05-22T05:52:13.755Z,16.5
2023-05-22T05:53:14.738Z,16.7
2023-05-22T05:54:15.720Z,16.7
2023-05-22T05:55:16.823Z,16.6
2023-05-22T05:56:17.791Z,16.6
2023-05-22T05:57:18.761Z,16.7
2023-05-22T05:58:19.731Z,16.8
2023-05-22T05:59:20.885Z,16.9
2023-05-22T06:00:21.741Z,16.9
2023-05-22T06:01:22.728Z,16.8
2023-05-22T06:02:23.771Z,16.7
2023-05-22T06:03:24.768Z,16.7
2023-05-22T06:04:25.723Z,16.8
2023-05-22T06:05:26.846Z,16.8
2023-05-22T06:06:27.815Z,16.9
2023-05-22T06:07:28.900Z,16.8
2023-05-22T06:08:30.779Z,16.8
2023-05-22T06:09:31.712Z,16.8
2023-05-22T06:10:32.730Z,16.9
2023-05-22T06:11:33.767Z,16.8
2023-05-22T06:12:34.724Z,16.9
2023-05-22T06:13:35.747Z,17
2023-05-22T06:14:36.760Z,17.2
2023-05-22T06:15:37.722Z,17.3
2023-05-22T06:16:38.811Z,17.3
2023-05-22T06:17:39.762Z,17.4
2023-05-22T06:18:40.770Z,17.3
2023-05-22T06:19:41.759Z,17.3
2023-05-22T06:20:42.720Z,17.2
2023-05-22T06:21:43.741Z,17.3
2023-05-22T06:22:44.709Z,17.3
2023-05-22T06:23:45.759Z,17.3
2023-05-22T06:24:46.698Z,17.4
2023-05-22T06:25:47.803Z,17.5
2023-05-22T06:26:48.860Z,17.6
2023-05-22T06:27:49.766Z,17.7
2023-05-22T06:28:50.759Z,17.8
2023-05-22T06:29:51.930Z,17.7
2023-05-22T06:30:52.704Z,17.8
2023-05-22T06:31:53.780Z,17.7
2023-05-22T06:32:54.832Z,17.8
2023-05-22T06:33:55.856Z,17.7
2023-05-22T06:34:56.734Z,17.7
2023-05-22T06:35:57.773Z,17.7
2023-05-22T06:36:58.729Z,17.6
2023-05-22T06:37:59.718Z,17.5
2023-05-22T06:39:00.730Z,17.5
2023-05-22T06:40:01.752Z,17.4
2023-05-22T06:41:02.792Z,17.3
2023-05-22T06:42:03.722Z,17.2
2023-05-22T06:43:04.741Z,17.4
2023-05-22T06:44:05.806Z,17.5
2023-05-22T06:45:06.949Z,17.5
2023-05-22T06:46:07.793Z,17.6
2023-05-22T06:47:08.770Z,17.7
2023-05-22T06:48:09.817Z,17.8
2023-05-22T06:49:10.740Z,17.8
2023-05-22T06:50:11.771Z,18
2023-05-22T06:51:12.791Z,18.1
2023-05-22T06:52:13.771Z,18.1
2023-05-22T06:53:14.742Z,18.2
2023-05-22T06:54:15.777Z,18.2
2023-05-22T06:55:16.716Z,18.3
2023-05-22T06:56:17.748Z,18.3
2023-05-22T06:57:18.733Z,18.5
2023-05-22T06:58:19.759Z,18.5
2023-05-22T06:59:20.829Z,18.6
2023-05-22T07:00:22.143Z,18.7
2023-05-22T07:01:22.790Z,18.9
2023-05-22T07:02:23.789Z,18.9
2023-05-22T07:03:24.752Z,19
2023-05-22T07:04:25.862Z,19
2023-05-22T07:05:26.771Z,19
2023-05-22T07:06:27.785Z,19
2023-05-22T07:07:28.778Z,19.1
2023-05-22T07:08:30.696Z,19.1
2023-05-22T07:09:30.786Z,19.1
2023-05-22T07:10:31.766Z,19.3
2023-05-22T07:11:32.780Z,19.2
2023-05-22T07:12:33.786Z,19
2023-05-22T07:13:34.829Z,18.9
2023-05-22T07:14:35.828Z,19
2023-05-22T07:15:36.856Z,19.1
2023-05-22T07:16:37.813Z,19.2
2023-05-22T07:17:38.830Z,19.3
2023-05-22T07:18:39.809Z,19.3
2023-05-22T07:19:40.841Z,19.3
2023-05-22T07:20:42.030Z,19.5
2023-05-22T07:21:42.810Z,19.7
2023-05-22T07:22:43.824Z,19.8
2023-05-22T07:23:44.806Z,19.8
2023-05-22T07:24:45.801Z,19.7
2023-05-22T07:25:46.850Z,19.8
2023-05-22T07:26:47.800Z,19.8
2023-05-22T07:27:48.818Z,19.8
2023-05-22T07:28:49.876Z,19.8
2023-05-22T07:29:50.777Z,19.6
2023-05-22T07:30:52.024Z,19.6
2023-05-22T07:31:52.846Z,19.5
2023-05-22T07:32:53.847Z,19.5
2023-05-22T07:33:54.799Z,19.5
2023-05-22T07:34:55.809Z,19.6
2023-05-22T07:35:56.776Z,19.7
2023-05-22T07:36:57.835Z,19.8
2023-05-22T07:37:58.840Z,19.9
2023-05-22T07:38:59.800Z,20
2023-05-22T07:40:00.802Z,20
2023-05-22T07:41:01.790Z,20.1
2023-05-22T07:42:02.844Z,20.2
2023-05-22T07:43:03.900Z,20.3
2023-05-22T07:44:04.798Z,20.3
2023-05-22T07:45:05.827Z,20.4
2023-05-22T07:46:07.162Z,20.5
2023-05-22T07:47:07.799Z,20.5
2023-05-22T07:48:08.838Z,20.5
2023-05-22T07:49:09.798Z,20.4
2023-05-22T07:50:10.825Z,20.4
2023-05-22T07:51:11.796Z,20.4
2023-05-22T07:52:12.888Z,20.4
2023-05-22T07:53:13.868Z,20.4
2023-05-22T07:54:14.797Z,20.4
2023-05-22T07:55:15.917Z,20.4
2023-05-22T07:56:16.825Z,20.5
2023-05-22T07:57:17.836Z,20.6
2023-05-22T07:58:18.817Z,20.6
2023-05-22T07:59:19.791Z,20.8
2023-05-22T08:00:20.873Z,20.9
2023-05-22T08:01:21.841Z,20.9
2023-05-22T08:02:22.845Z,20.9
2023-05-22T08:03:24.316Z,20.9
2023-05-22T08:04:24.951Z,21
2023-05-22T08:05:25.897Z,21
2023-05-22T08:06:26.896Z,21
2023-05-22T08:07:27.822Z,20.9
2023-05-22T08:08:29.944Z,20.9
2023-05-22T08:09:29.835Z,20.8
2023-05-22T08:10:41.806Z,20.9
2023-05-22T08:11:31.838Z,21
2023-05-22T08:12:32.836Z,21.1
2023-05-22T08:13:33.834Z,21
2023-05-22T08:14:34.814Z,21
2023-05-22T08:15:35.780Z,20.9
2023-05-22T08:16:37.054Z,20.9
2023-05-22T08:17:37.849Z,20.9
2023-05-22T08:18:38.834Z,20.9
2023-05-22T08:19:39.932Z,21
2023-05-22T08:20:40.949Z,21.2
2023-05-22T08:21:41.781Z,21.2
2023-05-22T08:22:42.785Z,21.3
2023-05-22T08:23:43.821Z,21.6
2023-05-22T08:24:44.894Z,21.6
2023-05-22T08:25:45.814Z,21.7
2023-05-22T08:26:46.836Z,21.7
2023-05-22T08:27:47.773Z,21.8
2023-05-22T08:28:48.797Z,21.7
2023-05-22T08:29:49.855Z,21.6
2023-05-22T08:30:50.843Z,21.5
2023-05-22T08:31:52.101Z,21.3
2023-05-22T08:32:52.858Z,21.3
2023-05-22T08:33:53.903Z,21.2
2023-05-22T08:34:54.862Z,21.3
2023-05-22T08:35:55.853Z,21.3
2023-05-22T08:36:56.851Z,21.2
2023-05-22T08:37:57.937Z,21.1
2023-05-22T08:38:58.861Z,21.2
2023-05-22T08:39:59.825Z,21.4
2023-05-22T08:41:00.894Z,21.6
2023-05-22T08:42:01.834Z,21.5
2023-05-22T08:43:02.875Z,21.3
2023-05-22T08:44:03.853Z,21.3
2023-05-22T08:45:04.868Z,21.4
2023-05-22T08:46:05.853Z,21.5
2023-05-22T08:47:07.033Z,21.6
2023-05-22T08:48:07.910Z,21.8
2023-05-22T08:49:08.889Z,22
2023-05-22T08:50:09.881Z,22.1
2023-05-22T08:51:10.824Z,22.1
2023-05-22T08:52:11.856Z,21.9
2023-05-22T08:53:12.829Z,21.6
2023-05-22T08:54:13.899Z,21.4
2023-05-22T08:55:14.834Z,21.3
2023-05-22T08:56:15.794Z,21.3
2023-05-22T08:57:16.802Z,21.4
2023-05-22T08:58:17.817Z,21.4
2023-05-22T08:59:18.835Z,21.5
2023-05-22T09:00:19.848Z,21.6
2023-05-22T09:01:20.890Z,21.7
2023-05-22T09:02:22.058Z,21.6
2023-05-22T09:03:22.837Z,21.7
2023-05-22T09:04:24.388Z,21.8
2023-05-22T09:05:25.906Z,22
2023-05-22T09:06:26.952Z,22.1
2023-05-22T09:07:27.870Z,22.1
2023-05-22T09:08:28.818Z,22.1
2023-05-22T09:09:29.837Z,22
2023-05-22T09:10:30.862Z,21.9
2023-05-22T09:11:31.880Z,21.8
2023-05-22T09:12:32.858Z,21.8
2023-05-22T09:13:33.819Z,21.9
2023-05-22T09:14:34.899Z,21.9
2023-05-22T09:15:35.838Z,22.1
2023-05-22T09:16:36.850Z,22.3
2023-05-22T09:17:37.906Z,22.5
2023-05-22T09:18:38.857Z,22.6
2023-05-22T09:19:39.904Z,22.6
2023-05-22T09:20:41.036Z,22.6
2023-05-22T09:21:41.839Z,22.9
2023-05-22T09:22:42.869Z,23
2023-05-22T09:23:43.869Z,23.1
2023-05-22T09:24:44.881Z,23.2
2023-05-22T09:25:45.879Z,23.4
2023-05-22T09:26:46.967Z,23.6
2023-05-22T09:27:47.877Z,23.7
2023-05-22T09:28:48.839Z,23.7
2023-05-22T09:29:49.886Z,23.6
2023-05-22T09:30:50.943Z,23.6
2023-05-22T09:31:52.017Z,23.6
2023-05-22T09:32:52.935Z,23.6
2023-05-22T09:33:53.860Z,23.6
2023-05-22T09:34:54.859Z,23.4
2023-05-22T09:35:55.841Z,23.2
2023-05-22T09:36:56.862Z,23.2
2023-05-22T09:37:57.832Z,23.2
2023-05-22T09:38:58.891Z,23.3
2023-05-22T09:39:59.888Z,23.3
2023-05-22T09:41:00.869Z,23.3
2023-05-22T09:42:01.852Z,23.1
2023-05-22T09:43:02.861Z,22.9
2023-05-22T09:44:03.905Z,22.9
2023-05-22T09:45:04.898Z,22.8
2023-05-22T09:46:05.959Z,22.8
2023-05-22T09:47:06.914Z,22.9
2023-05-22T09:48:08.030Z,23
2023-05-22T09:49:08.913Z,23.1
2023-05-22T09:50:09.905Z,23.1
2023-05-22T09:51:10.898Z,23.1
2023-05-22T09:52:11.898Z,23.2
2023-05-22T09:53:12.877Z,23.2
2023-05-22T09:54:13.867Z,23.1
2023-05-22T09:55:14.919Z,23
2023-05-22T09:56:19.153Z,22.8
2023-05-22T09:57:16.872Z,22.8
2023-05-22T09:58:17.901Z,22.7
2023-05-22T09:59:18.865Z,22.8
2023-05-22T10:00:19.885Z,22.9
2023-05-22T10:01:20.898Z,23.1
2023-05-22T10:02:21.911Z,23.3
2023-05-22T10:03:23.203Z,23.4
2023-05-22T10:04:23.935Z,23.4
2023-05-22T10:05:24.928Z,23.3
2023-05-22T10:06:25.866Z,23.3
2023-05-22T10:07:26.951Z,23.3
2023-05-22T10:08:27.872Z,23.3
2023-05-22T10:09:28.878Z,23.4
2023-05-22T10:10:29.923Z,23.5
2023-05-22T10:11:30.882Z,23.6
2023-05-22T10:12:31.888Z,23.8
2023-05-22T10:13:32.882Z,23.8
2023-05-22T10:14:33.881Z,23.8
2023-05-22T10:15:34.941Z,23.9
2023-05-22T10:16:35.935Z,23.8
2023-05-22T10:17:36.957Z,23.9
2023-05-22T10:18:38.039Z,24
2023-05-22T10:19:41.829Z,24
2023-05-22T10:20:40.024Z,23.9
2023-05-22T10:21:40.891Z,23.9
2023-05-22T10:22:41.931Z,23.8
2023-05-22T10:23:42.940Z,23.9
2023-05-22T10:24:43.936Z,24
2023-05-22T10:25:44.892Z,24.2
2023-05-22T10:26:45.880Z,24.3
2023-05-22T10:27:46.940Z,24.2
2023-05-22T10:28:47.903Z,24.1
2023-05-22T10:29:48.899Z,24
2023-05-22T10:30:49.946Z,23.9
2023-05-22T10:31:50.915Z,23.7
2023-05-22T10:32:51.902Z,23.2
2023-05-22T10:33:53.079Z,22.9
2023-05-22T10:34:53.919Z,22.8
2023-05-22T10:35:54.901Z,22.6
2023-05-22T10:36:58.217Z,22.6
2023-05-22T10:37:56.902Z,22.6
2023-05-22T10:38:57.892Z,22.6
2023-05-22T10:39:58.868Z,22.6
2023-05-22T10:40:59.982Z,22.7
2023-05-22T10:42:00.880Z,22.7
2023-05-22T10:43:01.941Z,22.7
2023-05-22T10:44:02.921Z,22.9
2023-05-22T10:45:04.203Z,22.9
2023-05-22T10:46:04.945Z,22.8
2023-05-22T10:47:05.945Z,22.8
2023-05-22T10:48:07.111Z,22.9
2023-05-22T10:49:08.049Z,23
2023-05-22T10:50:08.941Z,23.1
2023-05-22T10:51:09.932Z,23.3
2023-05-22T10:52:10.965Z,23.6
2023-05-22T10:53:11.902Z,23.8
2023-05-22T10:54:12.914Z,23.8
2023-05-22T10:55:13.923Z,23.9
2023-05-22T10:56:14.909Z,24
2023-05-22T10:57:15.922Z,24.1
2023-05-22T10:58:16.909Z,24.2
2023-05-22T10:59:17.948Z,24.3
2023-05-22T11:00:18.965Z,24.3
2023-05-22T11:01:19.949Z,24.2
2023-05-22T11:02:21.008Z,24.1
2023-05-22T11:03:21.926Z,23.9
2023-05-22T11:04:23.090Z,23.8
2023-05-22T11:05:23.924Z,23.9
2023-05-22T11:06:24.930Z,23.9
2023-05-22T11:07:25.990Z,24.1
2023-05-22T11:08:26.983Z,24.1
2023-05-22T11:09:27.947Z,24.1
2023-05-22T11:10:28.943Z,24.2
2023-05-22T11:11:29.946Z,24.4
2023-05-22T11:12:30.912Z,24.5
2023-05-22T11:13:31.922Z,24.5
2023-05-22T11:14:32.924Z,24.5
2023-05-22T11:15:34.184Z,24.5
2023-05-22T11:16:34.949Z,24.6
2023-05-22T11:17:35.922Z,24.7
2023-05-22T11:18:36.973Z,24.9
2023-05-22T11:19:38.132Z,25.1
2023-05-22T11:20:39.193Z,25.3
2023-05-22T11:21:39.931Z,25.5
2023-05-22T11:22:40.924Z,25.7
2023-05-22T11:23:42.037Z,25.6
2023-05-22T11:24:58.000Z,25.5
2023-05-22T11:25:58.945Z,25.4
2023-05-22T11:26:59.927Z,25.3
2023-05-22T11:28:00.915Z,25.2
2023-05-22T11:29:01.985Z,25.4
2023-05-22T11:30:02.935Z,25.5
2023-05-22T11:31:03.959Z,25.5
2023-05-22T11:32:04.967Z,25.6
2023-05-22T11:33:06.035Z,25.4
2023-05-22T11:34:07.094Z,25.3
2023-05-22T11:35:08.103Z,25.2
2023-05-22T11:36:08.965Z,25
2023-05-22T11:37:09.947Z,24.6
2023-05-22T11:38:10.935Z,24.5
2023-05-22T11:39:11.974Z,24.8
2023-05-22T11:40:12.966Z,24.9
2023-05-22T11:41:13.953Z,24.9
2023-05-22T11:42:14.938Z,24.8
2023-05-22T11:43:15.943Z,24.9
2023-05-22T11:44:16.967Z,24.9
2023-05-22T11:45:18.311Z,24.8
2023-05-22T11:46:19.956Z,24.8
2023-05-22T11:47:20.935Z,24.8
2023-05-22T11:48:21.935Z,24.9
2023-05-22T11:49:22.949Z,24.9
2023-05-22T11:50:33.944Z,25
2023-05-22T11:51:24.959Z,25.1
2023-05-22T11:52:25.991Z,25.3
2023-05-22T11:53:26.988Z,25.5
2023-05-22T11:54:27.966Z,25.8
2023-05-22T11:55:28.959Z,25.9
2023-05-22T11:56:29.942Z,25.9
2023-05-22T11:57:30.943Z,25.7
2023-05-22T11:58:31.922Z,25.7
2023-05-22T11:59:32.991Z,25.5
2023-05-22T12:00:34.033Z,25.6
2023-05-22T12:01:34.941Z,25.6
2023-05-22T12:02:36.089Z,25.7
2023-05-22T12:03:37.085Z,25.8
2023-05-22T12:04:37.925Z,25.9
2023-05-22T12:05:39.081Z,25.8
2023-05-22T12:06:40.004Z,25.9
2023-05-22T12:07:40.976Z,26.1
2023-05-22T12:08:41.920Z,26.2
2023-05-22T12:09:42.924Z,26.4
2023-05-22T12:10:43.961Z,26.2
2023-05-22T12:11:44.948Z,25.9
2023-05-22T12:12:46.037Z,25.9
2023-05-22T12:13:47.038Z,25.8
2023-05-22T12:14:47.937Z,25.8
2023-05-22T12:15:48.965Z,25.9
2023-05-22T12:16:49.976Z,25.9
2023-05-22T12:17:51.008Z,26
2023-05-22T12:18:52.031Z,26
2023-05-22T12:19:52.978Z,26.1
2023-05-22T12:20:54.069Z,26.2
2023-05-22T12:21:54.987Z,26.3
2023-05-22T12:22:55.985Z,26.1
2023-05-22T12:23:56.957Z,26.2
2023-05-22T12:24:57.976Z,26.4
2023-05-22T12:25:58.941Z,26.5
2023-05-22T12:26:59.913Z,26.7
2023-05-22T12:28:01.039Z,26.8
2023-05-22T12:29:01.963Z,27
2023-05-22T12:30:03.033Z,27.2
2023-05-22T12:31:03.985Z,27.5
2023-05-22T12:32:05.015Z,27.6
2023-05-22T12:33:06.002Z,27.4
2023-05-22T12:34:07.039Z,27.4
2023-05-22T12:35:07.993Z,27.4
2023-05-22T12:36:09.088Z,27.3
2023-05-22T12:37:10.031Z,27.3
2023-05-22T12:38:10.963Z,27.2
2023-05-22T12:39:11.963Z,27.3
2023-05-22T12:40:12.993Z,27.4
2023-05-22T12:41:14.022Z,27.4
2023-05-22T12:42:14.982Z,27.3
2023-05-22T12:43:15.975Z,27.2
2023-05-22T12:44:18.007Z,27.1
2023-05-22T12:45:19.207Z,26.9
2023-05-22T12:46:19.986Z,26.8
2023-05-22T12:47:21.049Z,26.5
2023-05-22T12:48:22.050Z,26.4
2023-05-22T12:49:22.944Z,26.5
2023-05-22T12:50:24.000Z,26.6
2023-05-22T12:51:25.137Z,26.6
2023-05-22T12:52:26.002Z,26.5
2023-05-22T12:53:27.019Z,26.6
2023-05-22T12:54:28.002Z,26.8
2023-05-22T12:55:28.969Z,26.9
2023-05-22T12:56:29.999Z,26.9
2023-05-22T12:57:30.921Z,26.9
2023-05-22T12:58:31.999Z,26.9
2023-05-22T12:59:33.040Z,26.9
2023-05-22T13:00:34.009Z,26.9
2023-05-22T13:01:35.093Z,26.7
2023-05-22T13:02:36.128Z,26.5
2023-05-22T13:03:37.030Z,26.5
2023-05-22T13:04:38.073Z,26.6
2023-05-22T13:05:39.235Z,26.8
2023-05-22T13:06:40.102Z,27
2023-05-22T13:07:41.023Z,27.2
2023-05-22T13:08:42.008Z,27.5
2023-05-22T13:09:42.967Z,27.7
2023-05-22T13:10:44.021Z,28
2023-05-22T13:11:45.039Z,28.3
2023-05-22T13:12:46.037Z,28.4
2023-05-22T13:13:47.102Z,28.3
2023-05-22T13:14:47.997Z,28
2023-05-22T13:15:48.996Z,28
2023-05-22T13:16:49.977Z,28
2023-05-22T13:17:51.114Z,27.9
2023-05-22T13:18:52.030Z,27.9
2023-05-22T13:19:52.977Z,27.7
2023-05-22T13:20:57.060Z,27.8
2023-05-22T13:21:58.106Z,27.7
2023-05-22T13:22:58.979Z,27.4
2023-05-22T13:24:00.080Z,27.4
2023-05-22T13:25:01.013Z,27.6
2023-05-22T13:26:02.039Z,27.8
2023-05-22T13:27:03.109Z,28
2023-05-22T13:28:04.005Z,28.1
2023-05-22T13:29:05.032Z,28.2
2023-05-22T13:30:06.076Z,28
2023-05-22T13:31:07.103Z,27.4
2023-05-22T13:32:08.015Z,27.2
2023-05-22T13:33:09.095Z,26.9
2023-05-22T13:34:09.987Z,26.6
2023-05-22T13:35:11.014Z,26.5
2023-05-22T13:36:11.995Z,26.8
2023-05-22T13:37:13.170Z,26.9
2023-05-22T13:38:14.059Z,27.1
2023-05-22T13:39:15.016Z,27.2